Airfield :
LOGIN :

Register | Disclaimer

   EN    FR    IT 

 










Legend :    VFR   Marginal VFR   IFR   Intensive IFR   Very Intensive IFR
Visi :
Ceiling :
>= 8 km
>= 3000ft
5 to 8 km
1000 to 3000 ft
1500m to 5 km
500 to 1000 ft
800 to 1500m
200 to 500 ft
< 800m
< 200 ft
Symbols :   Thunderstorms  Fog  Heavy snow  Heavy precipitations  Wind > 20 kt
SIGMETs :     Misc.  Thunderstorms  Icing  Turbulence  Mountain Waves  Volcanic Ashes






- Airport Elevation : 327 ft
- IATA code : BHX


EGBB - Birmingham

CURRENT METAR :
  • 260450Z 12004KT 5000 -RA BKN043 11/10 Q1010

EXPIRED METARs :
  • 260420Z 10003KT 9999 SCT047 11/10 Q1010
  • 260350Z 09006KT CAVOK 11/10 Q1010
  • 260320Z 08005KT 9999 -RA NSC 11/10 Q1011
  • 260250Z 10004KT 7000 -RA FEW035 SCT046 11/10 Q1011 RERA
  • 260220Z 15004KT 8000 -RA NSC 12/10 Q1012
  • 260150Z 17002KT CAVOK 12/10 Q1012
  • 260120Z 17003KT 8000 -RA NSC 12/11 Q1012
  • 260050Z 15006KT CAVOK 12/11 Q1012

TAF TAF EGBB
Valid from the 26 at 00:00 until the 27 at 00:00 UTC


252255Z 2600/2624 15009KT 9999 FEW040
TEMPO 2601/2608 6000 RA BKN010
PROB30
TEMPO 2605/2608 3000 +RA RADZ BKN007
TEMPO 2608/2620 6000 SHRA
BECMG 2609/2612 24010KT
PROB30
TEMPO 2610/2619 25015G25KT 3000 +SHRA +TSRAGR BKN010 BKN020CB
ATIS : +44 121 780 0910



MET'MAP, your aeronautical weather chart ! - Copyright ORBIFLY December 2007 - Disclaimer

ORBIFLY MET'MAP TEAM :

Programming & Development : Alexandra Zaïnal
Original concept : Baudouin d'Aumeries
Technical & hardware support : Manuel Goepfert
Assistance : Marc-Olivier Méhu




SOURCES & CREDITS :

   NOAA